createdAt,value
2022-10-28T00:00:47.681Z,9.63
2022-10-28T00:03:14.646Z,9.70
2022-10-28T00:05:41.584Z,9.51
2022-10-28T00:08:08.509Z,9.30
2022-10-28T00:10:35.671Z,9.05
2022-10-28T00:13:02.726Z,8.79
2022-10-28T00:15:30.190Z,9.18
2022-10-28T00:17:57.428Z,9.69
2022-10-28T00:20:24.481Z,9.73
2022-10-28T00:22:53.829Z,9.50
2022-10-28T00:25:24.918Z,9.22
2022-10-28T00:27:53.050Z,8.94
2022-10-28T00:30:20.716Z,8.66
2022-10-28T00:32:47.875Z,9.07
2022-10-28T00:35:15.253Z,9.61
2022-10-28T00:37:42.210Z,9.67
2022-10-28T00:40:10.847Z,9.50
2022-10-28T00:42:38.746Z,9.26
2022-10-28T00:45:06.350Z,9.03
2022-10-28T00:47:40.253Z,8.80
2022-10-28T00:50:26.943Z,9.23
2022-10-28T00:52:56.611Z,9.76
2022-10-28T00:55:23.589Z,9.74
2022-10-28T00:57:51.553Z,9.52
2022-10-28T01:00:19.008Z,9.26
2022-10-28T01:02:47.588Z,8.98
2022-10-28T01:05:17.198Z,8.68
2022-10-28T01:07:44.844Z,9.09
2022-10-28T01:10:14.443Z,9.62
2022-10-28T01:13:11.413Z,9.64
2022-10-28T01:15:45.235Z,9.35
2022-10-28T01:18:31.127Z,9.03
2022-10-28T01:21:17.063Z,8.69
2022-10-28T01:23:44.353Z,8.39
2022-10-28T01:26:40.464Z,8.95
2022-10-28T01:29:30.752Z,9.47
2022-10-28T01:32:18.362Z,9.35
2022-10-28T01:34:45.439Z,8.96
2022-10-28T01:37:54.410Z,8.64
2022-10-28T01:40:27.737Z,8.25
2022-10-28T01:43:04.241Z,7.94
2022-10-28T01:45:35.908Z,8.43
2022-10-28T01:48:09.094Z,8.95
2022-10-28T01:50:57.287Z,8.93
2022-10-28T01:53:27.490Z,8.64
2022-10-28T01:55:55.633Z,8.33
2022-10-28T01:58:24.905Z,8.03
2022-10-28T02:00:51.954Z,8.36
2022-10-28T02:03:18.995Z,8.86
2022-10-28T02:05:50.603Z,8.86
2022-10-28T02:08:22.777Z,8.66
2022-10-28T02:11:08.684Z,8.41
2022-10-28T02:13:55.504Z,8.13
2022-10-28T02:16:34.633Z,7.86
2022-10-28T02:19:03.606Z,8.54
2022-10-28T02:21:36.830Z,9.11
2022-10-28T02:24:31.904Z,9.08
2022-10-28T02:27:14.056Z,8.74
2022-10-28T02:29:45.763Z,8.41
2022-10-28T02:32:18.856Z,8.13
2022-10-28T02:34:47.068Z,7.91
2022-10-28T02:37:43.874Z,8.42
2022-10-28T02:40:14.686Z,9.02
2022-10-28T02:42:45.702Z,8.95
2022-10-28T02:45:15.733Z,8.69
2022-10-28T02:47:46.691Z,8.36
2022-10-28T02:50:17.449Z,8.02
2022-10-28T02:52:47.030Z,7.71
2022-10-28T02:55:14.199Z,8.16
2022-10-28T02:57:42.835Z,8.71
2022-10-28T03:00:12.092Z,8.77
2022-10-28T03:02:39.052Z,8.59
2022-10-28T03:05:06.404Z,8.33
2022-10-28T03:07:34.055Z,8.04
2022-10-28T03:10:01.182Z,7.78
2022-10-28T03:12:28.352Z,8.27
2022-10-28T03:14:58.323Z,8.82
2022-10-28T03:17:25.310Z,8.80
2022-10-28T03:19:53.813Z,8.55
2022-10-28T03:22:20.992Z,8.26
2022-10-28T03:24:47.946Z,8.02
2022-10-28T03:27:14.804Z,7.78
2022-10-28T03:29:45.883Z,8.24
2022-10-28T03:32:13.803Z,8.82
2022-10-28T03:34:41.964Z,8.82
2022-10-28T03:37:09.081Z,8.62
2022-10-28T03:39:36.083Z,8.35
2022-10-28T03:42:03.651Z,8.10
2022-10-28T03:44:30.809Z,7.86
2022-10-28T03:46:58.477Z,8.32
2022-10-28T03:49:26.054Z,8.88
2022-10-28T03:51:52.970Z,8.90
2022-10-28T03:54:19.974Z,8.65
2022-10-28T03:56:46.980Z,8.32
2022-10-28T03:59:16.382Z,8.00
2022-10-28T04:01:46.781Z,7.69
2022-10-28T04:04:13.816Z,8.15
2022-10-28T04:06:41.209Z,8.64
2022-10-28T04:09:08.409Z,8.65
2022-10-28T04:11:35.550Z,8.39
2022-10-28T04:14:02.965Z,8.07
2022-10-28T04:16:30.201Z,7.76
2022-10-28T04:19:03.807Z,7.52
2022-10-28T04:21:30.857Z,8.04
2022-10-28T04:23:57.838Z,8.57
2022-10-28T04:26:25.254Z,8.55
2022-10-28T04:28:52.299Z,8.34
2022-10-28T04:31:19.414Z,8.03
2022-10-28T04:33:46.501Z,7.71
2022-10-28T04:36:13.955Z,7.41
2022-10-28T04:38:40.940Z,7.78
2022-10-28T04:41:12.774Z,8.27
2022-10-28T04:43:40.705Z,8.25
2022-10-28T04:46:07.868Z,8.04
2022-10-28T04:48:35.067Z,7.73
2022-10-28T04:51:02.127Z,7.43
2022-10-28T04:53:29.182Z,7.18
2022-10-28T04:55:59.559Z,7.64
2022-10-28T04:58:27.754Z,8.22
2022-10-28T05:00:54.659Z,8.25
2022-10-28T05:03:21.728Z,8.04
2022-10-28T05:05:48.900Z,7.79
2022-10-28T05:08:16.128Z,7.50
2022-10-28T05:10:49.002Z,7.25
2022-10-28T05:13:17.373Z,7.74
2022-10-28T05:15:44.625Z,8.26
2022-10-28T05:18:12.103Z,8.29
2022-10-28T05:20:39.242Z,8.09
2022-10-28T05:23:07.876Z,7.83
2022-10-28T05:25:35.489Z,7.56
2022-10-28T05:28:02.507Z,7.34
2022-10-28T05:30:29.723Z,7.83
2022-10-28T05:33:03.310Z,8.43
2022-10-28T05:35:33.315Z,8.52
2022-10-28T05:38:00.414Z,8.36
2022-10-28T05:40:27.692Z,8.12
2022-10-28T05:42:54.953Z,7.91
2022-10-28T05:45:25.664Z,7.70
2022-10-28T05:47:53.254Z,8.14
2022-10-28T05:50:20.715Z,9.02
2022-10-28T05:52:55.562Z,9.22
2022-10-28T05:55:24.047Z,9.05
2022-10-28T05:57:52.495Z,8.78
2022-10-28T06:00:21.331Z,8.54
2022-10-28T06:02:48.350Z,8.39
2022-10-28T06:05:17.077Z,8.24
2022-10-28T06:07:45.317Z,8.72
2022-10-28T06:10:12.435Z,9.29
2022-10-28T06:12:38.524Z,9.36
2022-10-28T06:15:06.270Z,9.23
2022-10-28T06:17:35.031Z,9.01
2022-10-28T06:20:02.415Z,8.74
2022-10-28T06:22:29.724Z,8.47
2022-10-28T06:24:56.909Z,8.89
2022-10-28T06:27:23.998Z,9.41
2022-10-28T06:29:51.263Z,9.49
2022-10-28T06:32:19.013Z,9.39
2022-10-28T06:34:46.038Z,9.17
2022-10-28T06:37:13.297Z,8.96
2022-10-28T06:39:43.094Z,8.76
2022-10-28T06:42:10.380Z,9.25
2022-10-28T06:44:37.827Z,9.85
2022-10-28T06:47:06.402Z,9.95
2022-10-28T06:49:33.913Z,9.80
2022-10-28T06:52:01.128Z,9.59
2022-10-28T06:54:28.141Z,9.38
2022-10-28T06:56:55.252Z,9.20
2022-10-28T06:59:22.298Z,9.66
2022-10-28T07:01:49.533Z,10.24
2022-10-28T07:04:16.629Z,10.38
2022-10-28T07:06:45.443Z,10.24
2022-10-28T07:09:15.489Z,10.02
2022-10-28T07:11:45.729Z,9.85
2022-10-28T07:14:13.317Z,9.73
2022-10-28T07:16:42.277Z,9.71
2022-10-28T07:19:10.137Z,10.42
2022-10-28T07:21:37.400Z,11.19
2022-10-28T07:24:04.813Z,11.42
2022-10-28T07:26:32.216Z,11.33
2022-10-28T07:28:59.263Z,11.17
2022-10-28T07:31:27.835Z,10.99
2022-10-28T07:33:54.843Z,10.85
2022-10-28T07:36:22.797Z,10.74
2022-10-28T07:38:51.929Z,11.36
2022-10-28T07:41:20.021Z,12.27
2022-10-28T07:43:47.071Z,12.68
2022-10-28T07:46:18.486Z,12.65
2022-10-28T07:48:46.180Z,12.47
2022-10-28T07:51:14.353Z,12.33
2022-10-28T07:53:43.899Z,12.26
2022-10-28T07:56:13.678Z,12.23
2022-10-28T07:58:42.176Z,12.22
2022-10-28T08:01:10.076Z,12.94
2022-10-28T08:03:39.031Z,13.70
2022-10-28T08:06:11.306Z,13.93
2022-10-28T08:08:38.448Z,13.96
2022-10-28T08:11:14.208Z,14.00
2022-10-28T08:13:41.184Z,14.05
2022-10-28T08:16:08.517Z,14.06
2022-10-28T08:18:36.975Z,14.09
2022-10-28T08:21:07.306Z,14.12
2022-10-28T08:23:34.508Z,14.13
2022-10-28T08:26:02.294Z,14.69
2022-10-28T08:28:29.650Z,15.44
2022-10-28T08:31:09.205Z,15.65
2022-10-28T08:33:38.747Z,15.62
2022-10-28T08:36:07.183Z,15.55
2022-10-28T08:38:34.249Z,15.66
2022-10-28T08:41:18.536Z,15.80
2022-10-28T08:44:04.698Z,15.95
2022-10-28T08:46:45.107Z,16.18
2022-10-28T08:49:13.880Z,16.46
2022-10-28T08:51:42.583Z,16.74
2022-10-28T08:54:41.950Z,17.04
2022-10-28T08:57:17.803Z,17.43
2022-10-28T08:59:45.813Z,17.85
2022-10-28T09:02:22.182Z,18.24
2022-10-28T09:05:02.650Z,18.61
2022-10-28T09:07:29.856Z,18.90
2022-10-28T09:09:56.873Z,19.18
2022-10-28T09:12:46.261Z,19.47
2022-10-28T09:15:29.033Z,19.85
2022-10-28T09:18:10.432Z,20.20
2022-10-28T09:20:54.653Z,20.61
2022-10-28T09:23:28.865Z,20.98
2022-10-28T09:26:41.033Z,21.34
2022-10-28T09:29:20.137Z,21.73
2022-10-28T09:31:56.003Z,22.06
2022-10-28T09:34:47.324Z,22.40
2022-10-28T09:37:18.498Z,22.80
2022-10-28T09:39:48.494Z,23.05
2022-10-28T09:42:27.846Z,23.28
2022-10-28T09:45:01.931Z,23.54
2022-10-28T09:47:37.714Z,23.82
2022-10-28T09:50:08.494Z,24.04
2022-10-28T09:52:43.365Z,24.19
2022-10-28T09:55:19.006Z,24.31
2022-10-28T09:57:46.161Z,24.46
2022-10-28T10:00:14.152Z,24.76
2022-10-28T10:02:42.853Z,25.22
2022-10-28T10:05:17.008Z,25.55
2022-10-28T10:07:53.972Z,25.74
2022-10-28T10:10:24.847Z,26.13
2022-10-28T10:12:52.876Z,26.60
2022-10-28T10:15:33.302Z,27.08
2022-10-28T10:18:01.014Z,27.39
2022-10-28T10:20:28.283Z,27.61
2022-10-28T10:22:56.515Z,27.82
2022-10-28T10:25:30.439Z,28.22
2022-10-28T10:27:57.917Z,28.40
2022-10-28T10:30:29.957Z,28.40
2022-10-28T10:32:57.463Z,28.32
2022-10-28T10:35:26.687Z,28.49
2022-10-28T10:37:55.615Z,28.82
2022-10-28T10:40:32.628Z,28.93
2022-10-28T10:43:18.092Z,29.06
2022-10-28T10:45:51.805Z,29.42
2022-10-28T10:48:19.039Z,29.81
2022-10-28T10:50:47.317Z,29.96
2022-10-28T10:53:18.781Z,30.12
2022-10-28T10:55:50.035Z,30.27
2022-10-28T10:58:21.169Z,30.49
2022-10-28T11:00:49.775Z,30.76
2022-10-28T11:03:25.895Z,30.99
2022-10-28T11:06:18.208Z,31.13
2022-10-28T11:08:44.366Z,31.25
2022-10-28T11:11:19.205Z,31.41
2022-10-28T11:13:48.517Z,31.68
2022-10-28T11:16:23.364Z,32.02
2022-10-28T11:18:52.116Z,32.19
2022-10-28T11:22:04.407Z,32.33
2022-10-28T11:24:55.602Z,32.33
2022-10-28T11:27:32.976Z,32.25
2022-10-28T11:30:00.928Z,31.99
2022-10-28T11:32:40.250Z,31.83
2022-10-28T11:35:16.007Z,31.73
2022-10-28T11:38:08.748Z,31.49
2022-10-28T11:41:00.891Z,31.27
2022-10-28T11:43:36.568Z,31.19
2022-10-28T11:46:26.748Z,31.02
2022-10-28T11:49:12.135Z,30.94
2022-10-28T11:51:57.659Z,30.97
2022-10-28T11:54:45.098Z,31.06
2022-10-28T11:57:16.376Z,31.13
2022-10-28T12:00:29.559Z,31.11
2022-10-28T12:03:25.903Z,31.16
2022-10-28T12:06:05.087Z,31.12
2022-10-28T12:08:50.983Z,31.01
2022-10-28T12:11:46.894Z,30.94
2022-10-28T12:14:34.495Z,30.84
2022-10-28T12:17:14.821Z,30.61
2022-10-28T12:20:10.436Z,30.36
2022-10-28T12:22:58.795Z,30.23
2022-10-28T12:25:31.415Z,30.05
2022-10-28T12:28:21.019Z,29.92
2022-10-28T12:30:49.316Z,29.74
2022-10-28T12:33:28.973Z,29.59
2022-10-28T12:36:13.388Z,29.57
2022-10-28T12:39:12.400Z,29.41
2022-10-28T12:41:45.068Z,29.33
2022-10-28T12:44:14.924Z,29.23
2022-10-28T12:47:03.296Z,29.10
2022-10-28T12:49:45.779Z,29.02
2022-10-28T12:52:18.840Z,28.98
2022-10-28T12:54:57.120Z,28.90
2022-10-28T12:57:24.279Z,28.70
2022-10-28T13:00:25.939Z,28.55
2022-10-28T13:03:01.821Z,28.34
2022-10-28T13:05:37.473Z,28.16
2022-10-28T13:12:03.216Z,27.66
2022-10-28T13:15:15.597Z,27.30
2022-10-28T13:18:09.979Z,26.70
2022-10-28T13:21:14.963Z,26.07
2022-10-28T13:23:44.162Z,25.65
2022-10-28T13:26:26.463Z,25.43
2022-10-28T13:28:58.295Z,25.20
2022-10-28T13:31:45.217Z,24.98
2022-10-28T13:34:13.934Z,24.72
2022-10-28T13:36:45.569Z,24.42
2022-10-28T13:39:43.543Z,24.05
2022-10-28T13:42:13.487Z,23.62
2022-10-28T13:44:50.797Z,23.28
2022-10-28T13:47:17.760Z,22.96
2022-10-28T13:50:08.621Z,22.67
2022-10-28T13:52:42.274Z,22.33
2022-10-28T13:55:21.915Z,22.05
2022-10-28T13:57:51.429Z,21.81
2022-10-28T14:00:18.521Z,21.60
2022-10-28T14:03:01.560Z,21.40
2022-10-28T14:05:32.462Z,21.19
2022-10-28T14:08:22.458Z,20.99
2022-10-28T14:11:00.475Z,20.82
2022-10-28T14:13:27.402Z,20.69
2022-10-28T14:16:26.571Z,20.57
2022-10-28T14:19:03.454Z,20.38
2022-10-28T14:21:59.174Z,20.22
2022-10-28T14:24:33.297Z,19.96
2022-10-28T14:27:10.026Z,19.68
2022-10-28T14:29:49.239Z,19.41
2022-10-28T14:32:31.691Z,19.23
2022-10-28T14:35:11.010Z,19.09
2022-10-28T14:38:02.561Z,18.93
2022-10-28T14:40:36.220Z,18.68
2022-10-28T14:43:15.914Z,18.50
2022-10-28T14:45:52.430Z,18.28
2022-10-28T14:48:46.264Z,18.06
2022-10-28T14:51:18.346Z,17.89
2022-10-28T14:53:45.555Z,17.76
2022-10-28T14:58:50.248Z,17.47
2022-10-28T15:01:17.368Z,17.32
2022-10-28T15:03:46.939Z,17.18
2022-10-28T15:06:37.468Z,17.01
2022-10-28T15:09:22.311Z,16.83
2022-10-28T15:11:52.654Z,16.67
2022-10-28T15:14:29.595Z,16.54
2022-10-28T15:16:58.364Z,16.39
2022-10-28T15:19:27.432Z,16.25
2022-10-28T15:22:04.426Z,16.13
2022-10-28T15:24:31.568Z,15.97
2022-10-28T15:26:58.585Z,15.81
2022-10-28T15:29:25.699Z,15.67
2022-10-28T15:32:13.881Z,15.53
2022-10-28T15:34:41.320Z,15.37
2022-10-28T15:37:08.327Z,15.23
2022-10-28T15:39:35.823Z,15.09
2022-10-28T15:42:02.911Z,14.99
2022-10-28T15:44:49.697Z,14.90
2022-10-28T15:47:32.803Z,15.56
2022-10-28T15:50:17.360Z,16.24
2022-10-28T15:52:48.363Z,16.36
2022-10-28T15:55:18.317Z,16.20
2022-10-28T15:57:48.032Z,15.98
2022-10-28T16:00:20.722Z,15.78
2022-10-28T16:02:55.845Z,15.58
2022-10-28T16:05:32.609Z,15.39
2022-10-28T16:08:00.976Z,15.22
2022-10-28T16:10:28.748Z,15.09
2022-10-28T16:12:55.656Z,14.97
2022-10-28T16:15:22.647Z,14.83
2022-10-28T16:17:50.386Z,14.70
2022-10-28T16:20:21.974Z,14.55
2022-10-28T16:22:49.133Z,15.09
2022-10-28T16:25:20.716Z,15.72
2022-10-28T16:27:51.362Z,15.79
2022-10-28T16:30:18.609Z,15.58
2022-10-28T16:32:47.544Z,15.32
2022-10-28T16:35:16.430Z,15.06
2022-10-28T16:37:46.519Z,14.83
2022-10-28T16:40:37.538Z,14.62
2022-10-28T16:43:04.209Z,14.45
2022-10-28T16:45:31.506Z,14.29
2022-10-28T16:48:01.322Z,14.12
2022-10-28T16:50:28.299Z,13.92
2022-10-28T16:52:56.629Z,14.32
2022-10-28T16:55:23.994Z,14.89
2022-10-28T16:57:50.985Z,14.96
2022-10-28T17:00:18.588Z,14.79
2022-10-28T17:02:50.722Z,14.55
2022-10-28T17:05:22.471Z,14.25
2022-10-28T17:07:50.111Z,13.99
2022-10-28T17:10:17.445Z,13.79
2022-10-28T17:12:44.737Z,13.59
2022-10-28T17:15:17.938Z,13.38
2022-10-28T17:17:49.396Z,13.87
2022-10-28T17:20:16.704Z,14.44
2022-10-28T17:22:44.420Z,14.49
2022-10-28T17:25:11.388Z,14.29
2022-10-28T17:27:39.259Z,14.03
2022-10-28T17:30:07.277Z,13.74
2022-10-28T17:32:35.336Z,13.44
2022-10-28T17:35:02.571Z,13.18
2022-10-28T17:37:30.479Z,12.95
2022-10-28T17:39:57.448Z,12.74
2022-10-28T17:42:24.894Z,13.17
2022-10-28T17:44:52.290Z,13.71
2022-10-28T17:47:22.284Z,13.75
2022-10-28T17:49:49.476Z,13.54
2022-10-28T17:52:17.121Z,13.29
2022-10-28T17:54:45.328Z,13.03
2022-10-28T17:57:12.458Z,12.79
2022-10-28T17:59:40.428Z,12.54
2022-10-28T18:02:07.525Z,12.32
2022-10-28T18:04:36.409Z,12.77
2022-10-28T18:07:03.617Z,13.32
2022-10-28T18:09:32.360Z,13.39
2022-10-28T18:12:02.064Z,13.18
2022-10-28T18:14:29.689Z,12.89
2022-10-28T18:16:56.928Z,12.63
2022-10-28T18:19:25.441Z,12.40
2022-10-28T18:21:53.077Z,12.15
2022-10-28T18:24:23.349Z,11.92
2022-10-28T18:26:54.059Z,12.44
2022-10-28T18:29:21.018Z,13.05
2022-10-28T18:31:48.201Z,13.11
2022-10-28T18:34:16.574Z,12.91
2022-10-28T18:36:45.957Z,12.64
2022-10-28T18:39:13.138Z,12.40
2022-10-28T18:41:42.815Z,12.20
2022-10-28T18:44:14.634Z,12.01
2022-10-28T18:46:42.527Z,12.55
2022-10-28T18:49:09.475Z,13.14
2022-10-28T18:51:36.861Z,13.23
2022-10-28T18:54:04.489Z,13.05
2022-10-28T18:56:31.540Z,12.80
2022-10-28T18:58:58.927Z,12.55
2022-10-28T19:01:27.626Z,12.32
2022-10-28T19:03:59.347Z,12.07
2022-10-28T19:06:29.919Z,12.57
2022-10-28T19:08:59.583Z,13.15
2022-10-28T19:11:31.274Z,13.18
2022-10-28T19:13:59.374Z,12.96
2022-10-28T19:16:27.898Z,12.67
2022-10-28T19:18:57.194Z,12.39
2022-10-28T19:21:24.848Z,12.12
2022-10-28T19:23:52.383Z,12.46
2022-10-28T19:26:19.825Z,12.95
2022-10-28T19:28:48.374Z,12.97
2022-10-28T19:31:17.342Z,12.74
2022-10-28T19:33:45.456Z,12.46
2022-10-28T19:36:25.321Z,12.20
2022-10-28T19:38:56.191Z,11.93
2022-10-28T19:41:29.801Z,12.40
2022-10-28T19:43:59.159Z,13.10
2022-10-28T19:46:30.397Z,13.17
2022-10-28T19:48:58.647Z,12.94
2022-10-28T19:51:33.587Z,12.64
2022-10-28T19:54:02.271Z,12.32
2022-10-28T19:56:30.304Z,12.05
2022-10-28T19:58:58.509Z,11.79
2022-10-28T20:01:27.746Z,12.23
2022-10-28T20:03:55.123Z,12.78
2022-10-28T20:06:23.984Z,12.83
2022-10-28T20:08:52.088Z,12.57
2022-10-28T20:11:25.766Z,12.25
2022-10-28T20:14:01.782Z,11.91
2022-10-28T20:16:29.062Z,11.64
2022-10-28T20:18:57.467Z,11.40
2022-10-28T20:21:29.558Z,11.84
2022-10-28T20:23:57.192Z,12.38
2022-10-28T20:26:28.103Z,12.38
2022-10-28T20:28:55.222Z,12.09
2022-10-28T20:33:52.784Z,11.36
2022-10-28T20:36:33.015Z,11.18
2022-10-28T20:39:23.290Z,10.93
2022-10-28T20:41:51.345Z,11.58
2022-10-28T20:44:18.484Z,11.99
2022-10-28T20:46:48.209Z,11.94
2022-10-28T20:49:15.634Z,11.65
2022-10-28T20:51:42.757Z,11.34
2022-10-28T20:54:09.817Z,11.05
2022-10-28T20:56:37.880Z,10.76
2022-10-28T20:59:05.122Z,11.10
2022-10-28T21:01:35.103Z,11.58
2022-10-28T21:04:05.354Z,11.58
2022-10-28T21:06:33.363Z,11.32
2022-10-28T21:09:00.432Z,10.99
2022-10-28T21:11:28.265Z,10.70
2022-10-28T21:13:59.355Z,10.44
2022-10-28T21:16:28.442Z,10.86
2022-10-28T21:18:55.598Z,11.34
2022-10-28T21:21:24.175Z,11.35
2022-10-28T21:23:52.744Z,11.12
2022-10-28T21:26:19.748Z,10.82
2022-10-28T21:28:51.895Z,10.56
2022-10-28T21:31:19.598Z,10.28
2022-10-28T21:36:22.226Z,11.22
2022-10-28T21:38:53.000Z,11.23
2022-10-28T21:41:20.457Z,11.01
2022-10-28T21:43:49.290Z,10.69
2022-10-28T21:46:17.223Z,10.39
2022-10-28T21:48:45.541Z,10.12
2022-10-28T21:51:15.002Z,10.54
2022-10-28T21:53:43.993Z,11.08
2022-10-28T21:56:18.300Z,11.09
2022-10-28T21:58:49.205Z,10.84
2022-10-28T22:01:21.889Z,10.54
2022-10-28T22:03:49.687Z,10.25
2022-10-28T22:06:16.718Z,9.98
2022-10-28T22:08:43.735Z,10.38
2022-10-28T22:11:15.643Z,10.93
2022-10-28T22:13:42.761Z,10.95
2022-10-28T22:16:18.938Z,10.69
2022-10-28T22:18:46.633Z,10.38
2022-10-28T22:21:25.637Z,10.11
2022-10-28T22:23:52.921Z,9.84
2022-10-28T22:26:24.689Z,10.33
2022-10-28T22:28:53.114Z,10.90
2022-10-28T22:31:25.365Z,10.91
2022-10-28T22:33:52.926Z,10.68
2022-10-28T22:36:22.212Z,10.39
2022-10-28T22:38:49.412Z,10.09
2022-10-28T22:41:18.022Z,9.80
2022-10-28T22:43:58.424Z,10.21
2022-10-28T22:46:27.768Z,10.74
2022-10-28T22:48:54.787Z,10.73
2022-10-28T22:51:21.937Z,10.51
2022-10-28T22:53:51.219Z,10.22
2022-10-28T22:56:20.749Z,9.96
2022-10-28T22:58:48.856Z,9.72
2022-10-28T23:01:17.246Z,10.20
2022-10-28T23:03:46.321Z,10.76
2022-10-28T23:06:14.909Z,10.82
2022-10-28T23:08:42.440Z,10.63
2022-10-28T23:11:13.424Z,10.38
2022-10-28T23:13:41.790Z,10.11
2022-10-28T23:16:13.983Z,9.87
2022-10-28T23:18:41.166Z,10.29
2022-10-28T23:21:21.500Z,10.78
2022-10-28T23:23:55.476Z,10.77
2022-10-28T23:26:22.554Z,10.50
2022-10-28T23:28:51.131Z,10.19
2022-10-28T23:31:18.927Z,9.88
2022-10-28T23:33:46.135Z,9.57
2022-10-28T23:36:13.892Z,9.94
2022-10-28T23:38:41.097Z,10.45
2022-10-28T23:41:10.152Z,10.46
2022-10-28T23:43:37.948Z,10.22
2022-10-28T23:46:05.766Z,9.88
2022-10-28T23:48:32.911Z,9.55
2022-10-28T23:50:59.888Z,9.26
2022-10-28T23:55:58.929Z,10.20
2022-10-28T23:58:26.134Z,10.23
